sensor_id;sensor_type;location;lat;lon;timestamp;P1;durP1;ratioP1;P2;durP2;ratioP2
76284;SDS011;65096;50.998;7.098;2023-06-10T13:49:52;8.27;;;5.10;;
76284;SDS011;65096;50.998;7.098;2023-06-10T13:52:18;10.93;;;5.03;;
76284;SDS011;65096;50.998;7.098;2023-06-10T13:54:45;8.82;;;4.78;;
76284;SDS011;65096;50.998;7.098;2023-06-10T13:57:12;7.50;;;4.72;;
76284;SDS011;65096;50.998;7.098;2023-06-10T13:59:39;9.60;;;4.88;;
76284;SDS011;65096;50.998;7.098;2023-06-10T14:02:05;7.70;;;5.05;;
76284;SDS011;65096;50.998;7.098;2023-06-10T14:04:32;9.30;;;5.15;;
76284;SDS011;65096;50.998;7.098;2023-06-10T14:07:00;10.18;;;5.18;;
76284;SDS011;65096;50.998;7.098;2023-06-10T14:09:27;9.20;;;4.72;;
76284;SDS011;65096;50.998;7.098;2023-06-10T14:11:53;7.57;;;4.90;;
76284;SDS011;65096;50.998;7.098;2023-06-10T14:14:20;11.43;;;5.30;;
76284;SDS011;65096;50.998;7.098;2023-06-10T14:16:47;7.70;;;4.70;;
76284;SDS011;65096;50.998;7.098;2023-06-10T14:19:14;7.88;;;5.15;;
76284;SDS011;65096;50.998;7.098;2023-06-10T14:21:40;7.57;;;4.88;;
76284;SDS011;65096;50.998;7.098;2023-06-10T14:24:08;8.68;;;5.40;;
76284;SDS011;65096;50.998;7.098;2023-06-10T14:26:35;9.95;;;5.10;;
76284;SDS011;65096;50.998;7.098;2023-06-10T14:29:02;8.15;;;5.07;;
76284;SDS011;65096;50.998;7.098;2023-06-10T14:31:28;7.30;;;4.65;;
76284;SDS011;65096;50.998;7.098;2023-06-10T14:33:55;9.27;;;4.47;;
76284;SDS011;65096;50.998;7.098;2023-06-10T14:36:21;8.65;;;5.28;;
76284;SDS011;65096;50.998;7.098;2023-06-10T14:38:48;8.25;;;4.85;;
76284;SDS011;65096;50.998;7.098;2023-06-10T14:41:16;8.38;;;5.32;;
76284;SDS011;65096;50.998;7.098;2023-06-10T14:43:43;8.70;;;4.78;;
76284;SDS011;65096;50.998;7.098;2023-06-10T14:46:09;10.57;;;5.85;;
76284;SDS011;65096;50.998;7.098;2023-06-10T14:48:36;9.05;;;5.22;;
76284;SDS011;65096;50.998;7.098;2023-06-10T14:51:02;8.82;;;5.60;;
76284;SDS011;65096;50.998;7.098;2023-06-10T14:53:29;11.88;;;5.80;;
76284;SDS011;65096;50.998;7.098;2023-06-10T14:55:56;9.50;;;5.63;;
76284;SDS011;65096;50.998;7.098;2023-06-10T14:58:24;8.80;;;5.55;;
76284;SDS011;65096;50.998;7.098;2023-06-10T15:00:50;8.88;;;5.00;;
76284;SDS011;65096;50.998;7.098;2023-06-10T15:03:17;10.05;;;5.45;;
76284;SDS011;65096;50.998;7.098;2023-06-10T15:05:44;8.32;;;5.50;;
76284;SDS011;65096;50.998;7.098;2023-06-10T15:08:10;8.35;;;4.72;;
76284;SDS011;65096;50.998;7.098;2023-06-10T15:10:37;8.80;;;4.93;;
76284;SDS011;65096;50.998;7.098;2023-06-10T15:13:04;8.02;;;4.90;;
76284;SDS011;65096;50.998;7.098;2023-06-10T15:15:32;8.32;;;4.55;;
76284;SDS011;65096;50.998;7.098;2023-06-10T15:17:58;6.72;;;4.40;;
76284;SDS011;65096;50.998;7.098;2023-06-10T15:20:25;7.10;;;4.45;;
76284;SDS011;65096;50.998;7.098;2023-06-10T15:22:52;9.43;;;4.28;;
76284;SDS011;65096;50.998;7.098;2023-06-10T15:25:18;7.43;;;4.70;;
76284;SDS011;65096;50.998;7.098;2023-06-10T15:27:45;8.00;;;4.57;;
76284;SDS011;65096;50.998;7.098;2023-06-10T15:30:12;8.82;;;4.80;;
76284;SDS011;65096;50.998;7.098;2023-06-10T15:32:40;7.20;;;4.45;;
76284;SDS011;65096;50.998;7.098;2023-06-10T15:35:06;10.20;;;5.22;;
76284;SDS011;65096;50.998;7.098;2023-06-10T15:37:34;7.72;;;4.75;;
76284;SDS011;65096;50.998;7.098;2023-06-10T15:40:00;7.68;;;4.38;;
76284;SDS011;65096;50.998;7.098;2023-06-10T15:42:27;9.20;;;4.65;;
76284;SDS011;65096;50.998;7.098;2023-06-10T15:44:54;7.72;;;4.38;;
76284;SDS011;65096;50.998;7.098;2023-06-10T15:47:20;7.15;;;4.38;;
76284;SDS011;65096;50.998;7.098;2023-06-10T15:49:48;16.33;;;10.13;;
76284;SDS011;65096;50.998;7.098;2023-06-10T15:52:15;10.77;;;6.35;;
76284;SDS011;65096;50.998;7.098;2023-06-10T15:54:41;7.95;;;4.80;;
76284;SDS011;65096;50.998;7.098;2023-06-10T15:57:08;9.52;;;5.20;;
76284;SDS011;65096;50.998;7.098;2023-06-10T15:59:35;12.27;;;9.70;;
76284;SDS011;65096;50.998;7.098;2023-06-10T16:02:01;9.43;;;5.63;;
76284;SDS011;65096;50.998;7.098;2023-06-10T16:04:29;9.48;;;5.80;;
76284;SDS011;65096;50.998;7.098;2023-06-10T16:06:57;9.77;;;5.60;;
76284;SDS011;65096;50.998;7.098;2023-06-10T16:09:23;9.75;;;5.00;;
76284;SDS011;65096;50.998;7.098;2023-06-10T16:11:50;8.75;;;5.30;;
76284;SDS011;65096;50.998;7.098;2023-06-10T16:14:17;8.23;;;4.82;;
76284;SDS011;65096;50.998;7.098;2023-06-10T16:16:43;9.98;;;4.70;;
76284;SDS011;65096;50.998;7.098;2023-06-10T16:19:10;8.50;;;4.40;;
76284;SDS011;65096;50.998;7.098;2023-06-10T16:21:37;8.93;;;4.88;;
76284;SDS011;65096;50.998;7.098;2023-06-10T16:24:07;8.23;;;4.68;;
76284;SDS011;65096;50.998;7.098;2023-06-10T16:26:34;7.55;;;4.72;;
76284;SDS011;65096;50.998;7.098;2023-06-10T16:29:01;9.05;;;4.68;;
76284;SDS011;65096;50.998;7.098;2023-06-10T16:31:27;8.63;;;4.72;;
76284;SDS011;65096;50.998;7.098;2023-06-10T16:33:54;8.15;;;5.03;;
76284;SDS011;65096;50.998;7.098;2023-06-10T16:36:21;10.50;;;4.85;;
76284;SDS011;65096;50.998;7.098;2023-06-10T16:38:47;10.15;;;5.43;;
76284;SDS011;65096;50.998;7.098;2023-06-10T16:41:15;7.80;;;4.95;;
76284;SDS011;65096;50.998;7.098;2023-06-10T16:43:42;13.10;;;11.23;;
76284;SDS011;65096;50.998;7.098;2023-06-10T16:46:09;8.25;;;5.38;;
76284;SDS011;65096;50.998;7.098;2023-06-10T16:48:35;7.55;;;5.45;;
76284;SDS011;65096;50.998;7.098;2023-06-10T16:51:02;9.05;;;4.90;;
76284;SDS011;65096;50.998;7.098;2023-06-10T16:53:29;8.88;;;4.78;;
76284;SDS011;65096;50.998;7.098;2023-06-10T16:55:55;9.50;;;4.72;;
76284;SDS011;65096;50.998;7.098;2023-06-10T16:58:23;9.23;;;4.60;;
76284;SDS011;65096;50.998;7.098;2023-06-10T17:00:50;7.63;;;4.38;;
76284;SDS011;65096;50.998;7.098;2023-06-10T17:03:17;8.02;;;4.60;;
76284;SDS011;65096;50.998;7.098;2023-06-10T17:05:44;8.93;;;5.18;;
76284;SDS011;65096;50.998;7.098;2023-06-10T17:08:11;7.82;;;4.82;;
76284;SDS011;65096;50.998;7.098;2023-06-10T17:10:37;10.15;;;4.97;;
76284;SDS011;65096;50.998;7.098;2023-06-10T17:13:04;10.15;;;4.82;;
76284;SDS011;65096;50.998;7.098;2023-06-10T17:15:32;8.50;;;5.03;;
76284;SDS011;65096;50.998;7.098;2023-06-10T17:17:58;8.98;;;4.78;;
76284;SDS011;65096;50.998;7.098;2023-06-10T17:20:25;9.02;;;4.60;;
76284;SDS011;65096;50.998;7.098;2023-06-10T17:22:54;10.15;;;5.55;;
76284;SDS011;65096;50.998;7.098;2023-06-10T17:25:20;9.60;;;4.95;;
76284;SDS011;65096;50.998;7.098;2023-06-10T17:27:47;8.02;;;4.88;;
76284;SDS011;65096;50.998;7.098;2023-06-10T17:30:14;10.00;;;4.93;;
76284;SDS011;65096;50.998;7.098;2023-06-10T17:32:42;8.48;;;4.60;;
76284;SDS011;65096;50.998;7.098;2023-06-10T17:35:10;8.20;;;5.30;;
76284;SDS011;65096;50.998;7.098;2023-06-10T17:37:37;8.35;;;5.45;;
76284;SDS011;65096;50.998;7.098;2023-06-10T17:40:04;9.75;;;4.88;;
76284;SDS011;65096;50.998;7.098;2023-06-10T17:42:31;7.63;;;5.07;;
76284;SDS011;65096;50.998;7.098;2023-06-10T17:44:58;7.93;;;4.93;;
76284;SDS011;65096;50.998;7.098;2023-06-10T17:47:24;7.90;;;4.90;;
76284;SDS011;65096;50.998;7.098;2023-06-10T17:49:52;7.88;;;4.78;;
76284;SDS011;65096;50.998;7.098;2023-06-10T17:52:19;8.27;;;4.75;;
76284;SDS011;65096;50.998;7.098;2023-06-10T17:54:46;10.27;;;5.18;;
76284;SDS011;65096;50.998;7.098;2023-06-10T17:57:12;8.85;;;5.00;;
76284;SDS011;65096;50.998;7.098;2023-06-10T17:59:39;9.30;;;5.40;;
76284;SDS011;65096;50.998;7.098;2023-06-10T18:02:07;8.30;;;5.03;;
76284;SDS011;65096;50.998;7.098;2023-06-10T18:04:35;10.45;;;5.53;;
76284;SDS011;65096;50.998;7.098;2023-06-10T18:07:03;10.23;;;5.20;;
76284;SDS011;65096;50.998;7.098;2023-06-10T18:09:30;8.77;;;5.10;;
76284;SDS011;65096;50.998;7.098;2023-06-10T18:11:56;9.77;;;6.20;;
76284;SDS011;65096;50.998;7.098;2023-06-10T18:14:23;8.25;;;5.15;;
76284;SDS011;65096;50.998;7.098;2023-06-10T18:16:50;10.18;;;5.55;;
76284;SDS011;65096;50.998;7.098;2023-06-10T18:19:16;8.63;;;5.30;;
76284;SDS011;65096;50.998;7.098;2023-06-10T18:21:43;9.70;;;6.25;;
76284;SDS011;65096;50.998;7.098;2023-06-10T18:24:11;9.82;;;6.25;;
76284;SDS011;65096;50.998;7.098;2023-06-10T18:26:38;12.13;;;7.53;;
76284;SDS011;65096;50.998;7.098;2023-06-10T18:29:04;12.10;;;8.05;;
76284;SDS011;65096;50.998;7.098;2023-06-10T18:31:31;10.60;;;8.32;;
76284;SDS011;65096;50.998;7.098;2023-06-10T18:33:58;13.27;;;10.00;;
76284;SDS011;65096;50.998;7.098;2023-06-10T18:36:26;11.55;;;7.05;;
76284;SDS011;65096;50.998;7.098;2023-06-10T18:38:53;10.65;;;6.50;;
76284;SDS011;65096;50.998;7.098;2023-06-10T18:41:21;10.63;;;7.63;;
76284;SDS011;65096;50.998;7.098;2023-06-10T18:43:48;19.27;;;11.52;;
76284;SDS011;65096;50.998;7.098;2023-06-10T18:46:15;16.10;;;11.73;;
76284;SDS011;65096;50.998;7.098;2023-06-10T18:48:41;13.90;;;10.20;;
76284;SDS011;65096;50.998;7.098;2023-06-10T18:51:10;13.32;;;9.30;;
76284;SDS011;65096;50.998;7.098;2023-06-10T18:53:36;12.25;;;8.88;;
76284;SDS011;65096;50.998;7.098;2023-06-10T18:56:03;11.15;;;7.20;;
76284;SDS011;65096;50.998;7.098;2023-06-10T18:58:31;9.48;;;7.15;;
76284;SDS011;65096;50.998;7.098;2023-06-10T19:00:59;11.23;;;7.25;;
76284;SDS011;65096;50.998;7.098;2023-06-10T19:03:26;11.32;;;6.65;;
76284;SDS011;65096;50.998;7.098;2023-06-10T19:05:55;11.73;;;6.75;;
76284;SDS011;65096;50.998;7.098;2023-06-10T19:08:24;9.48;;;6.20;;
76284;SDS011;65096;50.998;7.098;2023-06-10T19:10:51;11.05;;;6.05;;
76284;SDS011;65096;50.998;7.098;2023-06-10T19:13:18;8.82;;;5.65;;
76284;SDS011;65096;50.998;7.098;2023-06-10T19:15:46;9.13;;;6.05;;
76284;SDS011;65096;50.998;7.098;2023-06-10T19:18:13;8.75;;;5.30;;
76284;SDS011;65096;50.998;7.098;2023-06-10T19:20:40;11.05;;;6.05;;
76284;SDS011;65096;50.998;7.098;2023-06-10T19:23:07;10.07;;;7.00;;
76284;SDS011;65096;50.998;7.098;2023-06-10T19:25:34;9.75;;;6.18;;
76284;SDS011;65096;50.998;7.098;2023-06-10T19:28:01;8.13;;;5.10;;
76284;SDS011;65096;50.998;7.098;2023-06-10T19:30:28;9.07;;;5.90;;
76284;SDS011;65096;50.998;7.098;2023-06-10T19:32:57;10.02;;;6.53;;
76284;SDS011;65096;50.998;7.098;2023-06-10T19:35:24;8.73;;;6.20;;
76284;SDS011;65096;50.998;7.098;2023-06-10T19:37:51;10.80;;;6.03;;
76284;SDS011;65096;50.998;7.098;2023-06-10T19:40:17;9.63;;;6.35;;
76284;SDS011;65096;50.998;7.098;2023-06-10T19:42:44;9.38;;;5.63;;
76284;SDS011;65096;50.998;7.098;2023-06-10T19:45:12;8.45;;;5.53;;
76284;SDS011;65096;50.998;7.098;2023-06-10T19:47:38;9.50;;;6.32;;
76284;SDS011;65096;50.998;7.098;2023-06-10T19:50:07;9.10;;;6.13;;
76284;SDS011;65096;50.998;7.098;2023-06-10T19:52:34;10.23;;;5.72;;
76284;SDS011;65096;50.998;7.098;2023-06-10T19:55:01;10.18;;;5.82;;
76284;SDS011;65096;50.998;7.098;2023-06-10T19:57:27;9.15;;;6.00;;
76284;SDS011;65096;50.998;7.098;2023-06-10T19:59:54;10.15;;;6.03;;
76284;SDS011;65096;50.998;7.098;2023-06-10T20:02:21;9.65;;;5.43;;
76284;SDS011;65096;50.998;7.098;2023-06-10T20:04:48;8.40;;;5.80;;
76284;SDS011;65096;50.998;7.098;2023-06-10T20:07:16;8.18;;;5.68;;
76284;SDS011;65096;50.998;7.098;2023-06-10T20:09:43;11.02;;;6.32;;
76284;SDS011;65096;50.998;7.098;2023-06-10T20:12:09;9.15;;;5.60;;
76284;SDS011;65096;50.998;7.098;2023-06-10T20:14:36;11.52;;;6.13;;
76284;SDS011;65096;50.998;7.098;2023-06-10T20:17:03;9.60;;;5.60;;
76284;SDS011;65096;50.998;7.098;2023-06-10T20:19:29;9.95;;;5.53;;
76284;SDS011;65096;50.998;7.098;2023-06-10T20:21:56;8.75;;;5.18;;
76284;SDS011;65096;50.998;7.098;2023-06-10T20:24:25;8.55;;;5.47;;
76284;SDS011;65096;50.998;7.098;2023-06-10T20:26:52;9.10;;;5.50;;
76284;SDS011;65096;50.998;7.098;2023-06-10T20:29:19;9.55;;;5.30;;
76284;SDS011;65096;50.998;7.098;2023-06-10T20:31:45;12.23;;;6.20;;
76284;SDS011;65096;50.998;7.098;2023-06-10T20:34:12;9.68;;;5.95;;
76284;SDS011;65096;50.998;7.098;2023-06-10T20:36:39;9.52;;;5.78;;
76284;SDS011;65096;50.998;7.098;2023-06-10T20:39:05;8.77;;;6.32;;
76284;SDS011;65096;50.998;7.098;2023-06-10T20:41:33;9.77;;;5.63;;
76284;SDS011;65096;50.998;7.098;2023-06-10T20:44:00;8.20;;;5.68;;
76284;SDS011;65096;50.998;7.098;2023-06-10T20:46:27;8.68;;;6.10;;
76284;SDS011;65096;50.998;7.098;2023-06-10T20:48:53;8.55;;;5.43;;
76284;SDS011;65096;50.998;7.098;2023-06-10T20:51:21;10.93;;;6.30;;
76284;SDS011;65096;50.998;7.098;2023-06-10T20:53:48;8.93;;;5.85;;
76284;SDS011;65096;50.998;7.098;2023-06-10T20:56:15;8.82;;;5.60;;
76284;SDS011;65096;50.998;7.098;2023-06-10T20:58:43;9.77;;;5.63;;
76284;SDS011;65096;50.998;7.098;2023-06-10T21:01:10;9.43;;;5.25;;
76284;SDS011;65096;50.998;7.098;2023-06-10T21:03:36;9.25;;;5.65;;
76284;SDS011;65096;50.998;7.098;2023-06-10T21:06:03;8.35;;;5.38;;
76284;SDS011;65096;50.998;7.098;2023-06-10T21:08:31;8.77;;;4.93;;
76284;SDS011;65096;50.998;7.098;2023-06-10T21:10:57;9.45;;;5.82;;
76284;SDS011;65096;50.998;7.098;2023-06-10T21:13:24;8.73;;;5.72;;
76284;SDS011;65096;50.998;7.098;2023-06-10T21:15:52;11.23;;;5.80;;
76284;SDS011;65096;50.998;7.098;2023-06-10T21:18:19;10.60;;;6.10;;
76284;SDS011;65096;50.998;7.098;2023-06-10T21:20:45;9.30;;;6.32;;
76284;SDS011;65096;50.998;7.098;2023-06-10T21:23:12;8.95;;;6.20;;
76284;SDS011;65096;50.998;7.098;2023-06-10T21:25:39;8.75;;;6.03;;
76284;SDS011;65096;50.998;7.098;2023-06-10T21:28:06;8.73;;;5.80;;
76284;SDS011;65096;50.998;7.098;2023-06-10T21:30:32;9.70;;;5.80;;
76284;SDS011;65096;50.998;7.098;2023-06-10T21:33:00;8.65;;;5.88;;
76284;SDS011;65096;50.998;7.098;2023-06-10T21:35:27;9.63;;;5.68;;
76284;SDS011;65096;50.998;7.098;2023-06-10T21:37:54;10.65;;;5.90;;
76284;SDS011;65096;50.998;7.098;2023-06-10T21:40:21;9.32;;;6.13;;
76284;SDS011;65096;50.998;7.098;2023-06-10T21:42:48;9.02;;;5.78;;
76284;SDS011;65096;50.998;7.098;2023-06-10T21:45:15;8.55;;;5.72;;
76284;SDS011;65096;50.998;7.098;2023-06-10T21:47:42;9.43;;;5.90;;
76284;SDS011;65096;50.998;7.098;2023-06-10T21:50:10;11.73;;;6.00;;
76284;SDS011;65096;50.998;7.098;2023-06-10T21:52:37;9.25;;;5.88;;
76284;SDS011;65096;50.998;7.098;2023-06-10T21:55:04;8.80;;;6.00;;
76284;SDS011;65096;50.998;7.098;2023-06-10T21:57:30;9.77;;;6.10;;
76284;SDS011;65096;50.998;7.098;2023-06-10T21:59:57;9.98;;;6.18;;
76284;SDS011;65096;50.998;7.098;2023-06-10T22:02:24;11.23;;;6.72;;
76284;SDS011;65096;50.998;7.098;2023-06-10T22:04:51;9.85;;;6.38;;
76284;SDS011;65096;50.998;7.098;2023-06-10T22:07:20;9.32;;;5.25;;
76284;SDS011;65096;50.998;7.098;2023-06-10T22:09:47;9.70;;;6.65;;
76284;SDS011;65096;50.998;7.098;2023-06-10T22:12:15;9.85;;;6.75;;
76284;SDS011;65096;50.998;7.098;2023-06-10T22:14:42;9.15;;;6.40;;
76284;SDS011;65096;50.998;7.098;2023-06-10T22:17:09;8.63;;;5.82;;
76284;SDS011;65096;50.998;7.098;2023-06-10T22:19:37;9.23;;;6.68;;
76284;SDS011;65096;50.998;7.098;2023-06-10T22:22:06;9.40;;;6.47;;
76284;SDS011;65096;50.998;7.098;2023-06-10T22:24:34;9.35;;;6.80;;
76284;SDS011;65096;50.998;7.098;2023-06-10T22:27:01;10.13;;;6.70;;
76284;SDS011;65096;50.998;7.098;2023-06-10T22:29:28;9.07;;;6.75;;
76284;SDS011;65096;50.998;7.098;2023-06-10T22:31:55;10.82;;;6.30;;
76284;SDS011;65096;50.998;7.098;2023-06-10T22:34:22;10.02;;;6.97;;
76284;SDS011;65096;50.998;7.098;2023-06-10T22:36:48;9.63;;;6.80;;
76284;SDS011;65096;50.998;7.098;2023-06-10T22:39:15;11.55;;;6.47;;
76284;SDS011;65096;50.998;7.098;2023-06-10T22:41:43;9.57;;;6.28;;
76284;SDS011;65096;50.998;7.098;2023-06-10T22:44:10;10.05;;;6.47;;
76284;SDS011;65096;50.998;7.098;2023-06-10T22:46:37;9.27;;;6.22;;
76284;SDS011;65096;50.998;7.098;2023-06-10T22:49:03;11.07;;;6.28;;
76284;SDS011;65096;50.998;7.098;2023-06-10T22:51:31;9.55;;;6.90;;
76284;SDS011;65096;50.998;7.098;2023-06-10T22:53:58;10.98;;;6.78;;
76284;SDS011;65096;50.998;7.098;2023-06-10T22:56:25;10.27;;;6.90;;
76284;SDS011;65096;50.998;7.098;2023-06-10T22:58:53;9.18;;;6.85;;
76284;SDS011;65096;50.998;7.098;2023-06-10T23:01:20;9.43;;;6.90;;
76284;SDS011;65096;50.998;7.098;2023-06-10T23:03:46;10.65;;;7.07;;
76284;SDS011;65096;50.998;7.098;2023-06-10T23:06:13;9.98;;;6.55;;
76284;SDS011;65096;50.998;7.098;2023-06-10T23:08:40;10.48;;;7.15;;
76284;SDS011;65096;50.998;7.098;2023-06-10T23:11:07;9.98;;;6.82;;
76284;SDS011;65096;50.998;7.098;2023-06-10T23:13:34;11.90;;;7.20;;
76284;SDS011;65096;50.998;7.098;2023-06-10T23:16:02;13.00;;;7.05;;
76284;SDS011;65096;50.998;7.098;2023-06-10T23:18:28;9.15;;;6.63;;
76284;SDS011;65096;50.998;7.098;2023-06-10T23:20:55;9.60;;;6.93;;
76284;SDS011;65096;50.998;7.098;2023-06-10T23:23:23;11.00;;;6.85;;
76284;SDS011;65096;50.998;7.098;2023-06-10T23:25:57;10.32;;;7.10;;
76284;SDS011;65096;50.998;7.098;2023-06-10T23:28:24;11.20;;;7.13;;
76284;SDS011;65096;50.998;7.098;2023-06-10T23:30:51;9.23;;;7.15;;
76284;SDS011;65096;50.998;7.098;2023-06-10T23:33:19;9.60;;;6.47;;
76284;SDS011;65096;50.998;7.098;2023-06-10T23:35:45;9.75;;;6.75;;
76284;SDS011;65096;50.998;7.098;2023-06-10T23:38:13;10.70;;;7.00;;
76284;SDS011;65096;50.998;7.098;2023-06-10T23:40:39;10.02;;;7.13;;
76284;SDS011;65096;50.998;7.098;2023-06-10T23:43:06;10.13;;;6.32;;
76284;SDS011;65096;50.998;7.098;2023-06-10T23:45:36;10.73;;;6.68;;
76284;SDS011;65096;50.998;7.098;2023-06-10T23:48:03;9.23;;;7.13;;
76284;SDS011;65096;50.998;7.098;2023-06-10T23:50:31;11.77;;;7.20;;
76284;SDS011;65096;50.998;7.098;2023-06-10T23:53:01;10.57;;;7.18;;
76284;SDS011;65096;50.998;7.098;2023-06-10T23:55:27;9.35;;;7.13;;
76284;SDS011;65096;50.998;7.098;2023-06-10T23:57:54;10.40;;;7.53;;
